logo
Rechercher aéroport 
image banner adimage banner adimage banner ad
image banner ad

EPSS - Swidnica-Krzczonow

Situé à , Poland

ICAO - , IATA -

Données fournies par Airmate  

Information générale

Coordonnées: N50°49'2" E16°34'56"
Élévation : 819 feet MSL.
 
Voir autres Aéroports à Lower Silesia

Données opérationnelles

Special qualification required
Heure actuelle UTC:
Heure actuelle locale:
Météo à : EPWR - Wroclaw/Strachowice ( 38 km )
METAR: EPWR 231530Z 15009KT 9999 FEW036 09/03 Q1001
TAF: TAF EPWR 231430Z 2315/2415 18006KT 9999 FEW045 BECMG 2319/2322 4500 RA BR BKN012 BECMG 2322/2401 29010KT TEMPO 2322/2404 2000 RA BR BKN003 OVC006 BECMG 2404/2407 9999 NSW BKN018 BECMG 2409/2412 21006KT
Voir NOTAMs / SUP AIP / TFR affectant cet aéroport [VIEW]
Fréquences de communication: [VIEW]

Pistes:

Coordonnées de l'aéroport

Adresse: Poland

Vue satellite de EPSS